Time;durP1;ratioP1;P1;durP2;ratioP2;P2;SDS_P1;SDS_P2;PMS_P1;PMS_P2;Temp;Humidity;BMP_temperature;BMP_pressure;BME280_temperature;BME280_humidity;BME280_pressure;Samples;Min_cycle;Max_cycle;Signal;HPM_P1;HPM_P2
2023/01/22 00:04:51;;;;;;;2.55;0.60;;;;;;;;;;20996655;28;20052;-61
2023/01/22 00:15:12;;;;;;;0.30;0.10;;;;;;;;;;20996241;28;20055;-61
2023/01/22 00:25:34;;;;;;;1.85;0.10;;;;;;;;;;20994194;28;20075;-62
2023/01/22 00:35:55;;;;;;;1.15;0.30;;;;;;;;;;20995427;28;20409;-61
2023/01/22 00:46:17;;;;;;;1.80;0.25;;;;;;;;;;21000990;28;20059;-61
2023/01/22 00:56:39;;;;;;;0.82;0.20;;;;;;;;;;21010634;28;20052;-61
2023/01/22 01:06:54;;;;;;;1.02;0.15;;;;;;;;;;21007461;28;20052;-64
2023/01/22 01:17:10;;;;;;;1.42;0.20;;;;;;;;;;21007804;28;20044;-64
2023/01/22 01:27:16;;;;;;;1.73;0.10;;;;;;;;;;21007187;28;20177;-63
2023/01/22 01:37:19;;;;;;;0.70;0.10;;;;;;;;;;21005977;28;20049;-65
2023/01/22 01:47:32;;;;;;;0.20;0.10;;;;;;;;;;21005919;28;20059;-64
2023/01/22 01:57:40;;;;;;;0.73;0.10;;;;;;;;;;21005060;28;20045;-62
2023/01/22 02:07:47;;;;;;;1.65;0.35;;;;;;;;;;21003651;28;20093;-63
2023/01/22 02:18:08;;;;;;;1.80;0.20;;;;;;;;;;21004217;28;20101;-63
2023/01/22 02:28:30;;;;;;;0.70;0.28;;;;;;;;;;21002040;28;20052;-62
2023/01/22 02:38:51;;;;;;;0.45;0.20;;;;;;;;;;21001687;28;20052;-61
2023/01/22 02:49:12;;;;;;;6.90;0.55;;;;;;;;;;21000728;28;20399;-61
2023/01/22 02:59:33;;;;;;;1.53;0.20;;;;;;;;;;21000355;28;20048;-64
2023/01/22 03:09:45;;;;;;;0.85;0.30;;;;;;;;;;20998051;28;20500;-61
2023/01/22 03:30:47;;;;;;;2.27;0.30;;;;;;;;;;20998056;28;20048;-65
2023/01/22 03:41:10;;;;;;;0.95;0.20;;;;;;;;;;20997173;28;20363;-65
2023/01/22 03:51:32;;;;;;;0.50;0.17;;;;;;;;;;20996277;28;20059;-64
2023/01/22 04:01:51;;;;;;;0.70;0.20;;;;;;;;;;20996334;28;20049;-62
2023/01/22 04:12:06;;;;;;;2.38;0.40;;;;;;;;;;20996067;28;20074;-62
2023/01/22 04:22:16;;;;;;;1.95;0.20;;;;;;;;;;21005380;28;20040;-61
2023/01/22 04:32:23;;;;;;;0.65;0.20;;;;;;;;;;21011187;28;20121;-62
2023/01/22 04:42:44;;;;;;;1.88;0.40;;;;;;;;;;21010641;28;20118;-61
2023/01/22 04:52:51;;;;;;;1.15;0.40;;;;;;;;;;21009250;28;20127;-62
2023/01/22 05:02:58;;;;;;;1.33;0.57;;;;;;;;;;21008393;28;20084;-64
2023/01/22 05:13:02;;;;;;;2.30;0.20;;;;;;;;;;21008940;28;20465;-65
2023/01/22 05:23:05;;;;;;;0.73;0.20;;;;;;;;;;21007636;28;20052;-63
2023/01/22 05:33:07;;;;;;;0.68;0.25;;;;;;;;;;21005717;28;20168;-62
2023/01/22 05:43:10;;;;;;;0.65;0.35;;;;;;;;;;21005868;28;20058;-62
2023/01/22 05:53:12;;;;;;;1.40;0.30;;;;;;;;;;21005357;28;20094;-63
2023/01/22 06:03:15;;;;;;;1.27;0.40;;;;;;;;;;21004730;28;20500;-63
2023/01/22 06:13:17;;;;;;;2.25;0.20;;;;;;;;;;21004233;28;20056;-61
2023/01/22 06:23:21;;;;;;;0.50;0.30;;;;;;;;;;21003232;28;20495;-62
2023/01/22 06:33:25;;;;;;;2.25;0.40;;;;;;;;;;21002029;28;20083;-64
2023/01/22 06:43:30;;;;;;;0.60;0.28;;;;;;;;;;21000556;28;20056;-66
2023/01/22 06:53:33;;;;;;;1.42;0.30;;;;;;;;;;21000014;28;20041;-65
2023/01/22 07:03:36;;;;;;;1.63;0.50;;;;;;;;;;20999355;28;20048;-62
2023/01/22 07:13:41;;;;;;;1.48;0.45;;;;;;;;;;20998741;28;20452;-63
2023/01/22 07:23:43;;;;;;;6.10;0.77;;;;;;;;;;20997244;28;20059;-64
2023/01/22 07:33:45;;;;;;;6.15;1.67;;;;;;;;;;20996981;28;20048;-63
2023/01/22 07:43:48;;;;;;;5.15;1.45;;;;;;;;;;20995709;28;20187;-64
2023/01/22 07:53:50;;;;;;;9.50;1.38;;;;;;;;;;20995208;28;20049;-65
2023/01/22 08:03:52;;;;;;;9.57;1.70;;;;;;;;;;20996579;28;20135;-65
2023/01/22 08:13:54;;;;;;;5.13;0.80;;;;;;;;;;20996568;28;20060;-63
2023/01/22 08:23:57;;;;;;;5.05;0.90;;;;;;;;;;20995366;28;20052;-67
2023/01/22 08:33:59;;;;;;;6.10;0.93;;;;;;;;;;20995546;28;20048;-62
2023/01/22 08:44:01;;;;;;;3.25;1.10;;;;;;;;;;20993641;28;20056;-66
2023/01/22 08:54:04;;;;;;;4.30;1.10;;;;;;;;;;20994013;28;20140;-63
2023/01/22 09:04:08;;;;;;;6.20;1.85;;;;;;;;;;20995424;28;20064;-65
2023/01/22 09:14:12;;;;;;;4.90;1.48;;;;;;;;;;21009558;28;20477;-61
2023/01/22 09:24:14;;;;;;;12.00;3.40;;;;;;;;;;21007724;28;20056;-62
2023/01/22 09:34:16;;;;;;;3.15;0.85;;;;;;;;;;21007396;28;20123;-61
2023/01/22 09:44:28;;;;;;;1.67;0.50;;;;;;;;;;21005605;28;20092;-61
2023/01/22 09:54:30;;;;;;;1.70;0.30;;;;;;;;;;21005316;28;20132;-61
2023/01/22 10:04:46;;;;;;;2.42;0.55;;;;;;;;;;21004257;28;20472;-61
2023/01/22 10:14:48;;;;;;;0.55;0.30;;;;;;;;;;21002360;28;20041;-63
2023/01/22 10:24:50;;;;;;;2.33;0.35;;;;;;;;;;21001780;28;20048;-63
2023/01/22 10:35:04;;;;;;;2.28;0.60;;;;;;;;;;21000842;28;20095;-62
2023/01/22 10:45:09;;;;;;;1.67;0.47;;;;;;;;;;21000190;28;20064;-62
2023/01/22 10:55:20;;;;;;;0.85;0.20;;;;;;;;;;20999988;28;20045;-61
2023/01/22 11:05:24;;;;;;;1.48;0.50;;;;;;;;;;20998904;28;20489;-61
2023/01/22 11:15:32;;;;;;;0.80;0.30;;;;;;;;;;20997682;28;20127;-62
2023/01/22 11:25:40;;;;;;;1.23;0.38;;;;;;;;;;20996796;28;20481;-63
2023/01/22 11:35:45;;;;;;;0.40;0.20;;;;;;;;;;20995735;28;20056;-61
2023/01/22 11:45:53;;;;;;;1.77;0.40;;;;;;;;;;20996649;28;20080;-62
2023/01/22 11:56:05;;;;;;;1.02;0.30;;;;;;;;;;20996707;28;20184;-61
2023/01/22 12:06:13;;;;;;;0.73;0.28;;;;;;;;;;20995857;28;20059;-61
2023/01/22 12:16:19;;;;;;;1.58;0.20;;;;;;;;;;20993514;28;20485;-62
2023/01/22 12:26:26;;;;;;;2.80;0.40;;;;;;;;;;20993613;28;20094;-62
2023/01/22 12:36:29;;;;;;;0.63;0.30;;;;;;;;;;20994441;28;20055;-63
2023/01/22 12:46:50;;;;;;;0.70;0.32;;;;;;;;;;21006816;28;20116;-63
2023/01/22 12:56:55;;;;;;;1.05;0.38;;;;;;;;;;21008336;28;20049;-65
2023/01/22 13:07:04;;;;;;;0.80;0.32;;;;;;;;;;21007324;28;20063;-62
2023/01/22 13:17:18;;;;;;;1.27;0.23;;;;;;;;;;21005686;28;20378;-61
2023/01/22 13:27:27;;;;;;;1.42;0.50;;;;;;;;;;21005033;28;20074;-62
2023/01/22 13:37:29;;;;;;;0.88;0.30;;;;;;;;;;21005391;28;20044;-61
2023/01/22 13:47:35;;;;;;;1.08;0.40;;;;;;;;;;21004646;28;20413;-63
2023/01/22 13:57:43;;;;;;;1.30;0.55;;;;;;;;;;21002438;28;20052;-62
2023/01/22 14:07:45;;;;;;;1.60;0.60;;;;;;;;;;21002580;28;20181;-66
2023/01/22 14:17:48;;;;;;;1.88;0.60;;;;;;;;;;21002616;28;20048;-66
2023/01/22 14:27:51;;;;;;;1.40;0.50;;;;;;;;;;21001839;28;20049;-65
2023/01/22 14:37:53;;;;;;;0.65;0.40;;;;;;;;;;21001837;28;20459;-64
2023/01/22 14:47:55;;;;;;;1.02;0.40;;;;;;;;;;20998846;28;20084;-67
2023/01/22 14:57:58;;;;;;;1.40;0.40;;;;;;;;;;20998773;28;20146;-66
2023/01/22 15:08:00;;;;;;;0.88;0.30;;;;;;;;;;20998390;28;20064;-66
2023/01/22 15:18:03;;;;;;;0.68;0.30;;;;;;;;;;20999122;28;20071;-63
2023/01/22 15:28:05;;;;;;;1.17;0.47;;;;;;;;;;20998536;28;20143;-63
2023/01/22 15:38:07;;;;;;;1.45;0.40;;;;;;;;;;20997820;28;20352;-62
2023/01/22 15:48:12;;;;;;;1.30;0.50;;;;;;;;;;20996994;28;20477;-61
2023/01/22 15:58:14;;;;;;;0.47;0.38;;;;;;;;;;20996562;28;20049;-62
2023/01/22 16:08:16;;;;;;;1.20;0.55;;;;;;;;;;20995606;28;20400;-62
2023/01/22 16:18:19;;;;;;;1.25;0.32;;;;;;;;;;21005067;28;20040;-63
2023/01/22 16:28:21;;;;;;;2.13;0.30;;;;;;;;;;21012140;28;20549;-61
2023/01/22 16:38:23;;;;;;;1.20;0.40;;;;;;;;;;21011230;28;20409;-62
2023/01/22 16:48:25;;;;;;;0.80;0.30;;;;;;;;;;21013281;28;20078;-61
2023/01/22 16:58:27;;;;;;;1.42;0.55;;;;;;;;;;21007147;28;20068;-63
2023/01/22 17:08:29;;;;;;;0.77;0.40;;;;;;;;;;21005788;28;20412;-62
2023/01/22 17:18:33;;;;;;;0.75;0.30;;;;;;;;;;21006577;28;20058;-61
2023/01/22 17:28:36;;;;;;;1.88;0.77;;;;;;;;;;21003391;28;20135;-62
2023/01/22 17:38:38;;;;;;;1.33;0.68;;;;;;;;;;21004220;28;20452;-61
2023/01/22 17:48:41;;;;;;;1.92;1.05;;;;;;;;;;21003286;28;20052;-62
2023/01/22 17:58:43;;;;;;;2.08;0.70;;;;;;;;;;21004213;28;20048;-62
2023/01/22 18:08:46;;;;;;;1.30;0.60;;;;;;;;;;21003228;28;20098;-62
2023/01/22 18:18:50;;;;;;;2.35;0.90;;;;;;;;;;21003352;28;20436;-62
2023/01/22 18:28:53;;;;;;;2.63;0.73;;;;;;;;;;21002609;28;20052;-62
2023/01/22 18:38:58;;;;;;;3.65;1.15;;;;;;;;;;20999595;28;20059;-62
2023/01/22 18:49:01;;;;;;;7.90;3.40;;;;;;;;;;20998942;28;20071;-62
2023/01/22 18:59:04;;;;;;;16.42;7.93;;;;;;;;;;20998224;28;20056;-62
2023/01/22 19:09:13;;;;;;;7.10;2.88;;;;;;;;;;20998159;28;20055;-62
2023/01/22 19:19:15;;;;;;;6.30;2.90;;;;;;;;;;20997883;28;20143;-62
2023/01/22 19:29:17;;;;;;;5.45;2.70;;;;;;;;;;20997509;28;20131;-61
2023/01/22 19:39:20;;;;;;;8.15;3.80;;;;;;;;;;20996793;28;20140;-63
2023/01/22 19:49:21;;;;;;;7.47;4.03;;;;;;;;;;20996612;28;20053;-65
2023/01/22 19:59:23;;;;;;;10.50;3.38;;;;;;;;;;20996811;28;20517;-62
2023/01/22 20:09:25;;;;;;;9.95;4.53;;;;;;;;;;20995560;28;20113;-61
2023/01/22 20:19:28;;;;;;;8.77;5.43;;;;;;;;;;20994350;28;20055;-61
2023/01/22 20:29:30;;;;;;;9.52;4.68;;;;;;;;;;20995333;28;20323;-64
2023/01/22 20:39:32;;;;;;;16.20;7.55;;;;;;;;;;20995009;28;20107;-62
2023/01/22 20:49:35;;;;;;;22.70;10.93;;;;;;;;;;20995341;28;20550;-62
2023/01/22 20:59:37;;;;;;;10.70;5.50;;;;;;;;;;20994940;28;20408;-62
2023/01/22 21:09:39;;;;;;;13.23;5.45;;;;;;;;;;21007606;28;20044;-62
2023/01/22 21:19:41;;;;;;;11.52;4.93;;;;;;;;;;21007923;28;20048;-62
2023/01/22 21:29:43;;;;;;;14.35;6.50;;;;;;;;;;21006113;28;20048;-62
2023/01/22 21:39:45;;;;;;;13.90;4.22;;;;;;;;;;21005561;28;20056;-62
2023/01/22 21:49:48;;;;;;;6.10;3.25;;;;;;;;;;21005440;28;20056;-60
2023/01/22 21:59:50;;;;;;;6.35;2.25;;;;;;;;;;21005027;28;20045;-61
2023/01/22 22:09:52;;;;;;;5.68;2.10;;;;;;;;;;21004520;28;20409;-62
2023/01/22 22:19:54;;;;;;;6.63;3.28;;;;;;;;;;21003610;28;20048;-62
2023/01/22 22:29:56;;;;;;;8.57;3.95;;;;;;;;;;21002378;28;20048;-63
2023/01/22 22:39:58;;;;;;;10.73;3.53;;;;;;;;;;21001991;28;20056;-67
2023/01/22 22:50:00;;;;;;;10.68;4.35;;;;;;;;;;21000800;28;20048;-62
2023/01/22 23:00:05;;;;;;;9.25;3.90;;;;;;;;;;20999782;28;20090;-62
2023/01/22 23:10:27;;;;;;;7.88;3.70;;;;;;;;;;20999418;28;20086;-62
2023/01/22 23:20:29;;;;;;;11.23;4.00;;;;;;;;;;20997822;28;20452;-62
2023/01/22 23:30:31;;;;;;;8.43;4.50;;;;;;;;;;20996788;28;20126;-62
2023/01/22 23:40:38;;;;;;;8.30;4.30;;;;;;;;;;20997469;28;20048;-63
2023/01/22 23:51:00;;;;;;;6.07;3.70;;;;;;;;;;20996682;28;20056;-61
